createdAt,value
2019-04-01T00:01:21.943Z,57.11
2019-04-01T00:03:51.384Z,57.34
2019-04-01T00:06:20.846Z,57.60
2019-04-01T00:08:50.282Z,57.96
2019-04-01T00:11:20.024Z,58.08
2019-04-01T00:13:49.460Z,58.33
2019-04-01T00:16:19.236Z,58.39
2019-04-01T00:19:02.050Z,58.50
2019-04-01T00:21:19.848Z,58.69
2019-04-01T00:23:49.290Z,59.00
2019-04-01T00:26:18.999Z,59.18
2019-04-01T00:28:48.450Z,59.34
2019-04-01T00:31:18.208Z,59.37
2019-04-01T00:33:47.644Z,59.59
2019-04-01T00:36:17.331Z,59.69
2019-04-01T00:38:47.009Z,59.37
2019-04-01T00:41:16.514Z,59.60
2019-04-01T00:43:46.041Z,59.74
2019-04-01T00:46:17.357Z,59.87
2019-04-01T00:48:47.101Z,60.06
2019-04-01T00:51:16.540Z,60.44
2019-04-01T00:53:46.042Z,60.41
2019-04-01T00:56:17.966Z,60.46
2019-04-01T00:58:46.655Z,60.45
2019-04-01T01:01:16.165Z,60.61
2019-04-01T01:03:45.865Z,60.63
2019-04-01T01:06:15.305Z,60.45
2019-04-01T01:08:45.073Z,60.86
2019-04-01T01:11:14.512Z,60.93
2019-04-01T01:13:44.291Z,61.00
2019-04-01T01:16:13.732Z,61.07
2019-04-01T01:18:43.180Z,61.08
2019-04-01T01:21:12.623Z,61.15
2019-04-01T01:23:42.069Z,61.50
2019-04-01T01:26:11.508Z,61.58
2019-04-01T01:28:40.962Z,61.93
2019-04-01T01:31:10.401Z,62.01
2019-04-01T01:33:39.854Z,61.77
2019-04-01T01:36:09.358Z,61.82
2019-04-01T01:38:38.825Z,61.49
2019-04-01T01:41:08.499Z,62.00
2019-04-01T01:43:38.187Z,62.16
2019-04-01T01:46:07.946Z,62.06
2019-04-01T01:48:37.655Z,62.69
2019-04-01T01:51:07.466Z,62.50
2019-04-01T01:53:36.980Z,62.66
2019-04-01T01:56:06.669Z,62.63
2019-04-01T01:58:36.124Z,62.93
2019-04-01T02:01:05.628Z,63.06
2019-04-01T02:03:35.316Z,63.65
2019-04-01T02:06:04.756Z,63.73
2019-04-01T02:08:34.206Z,63.98
2019-04-01T02:11:03.920Z,63.87
2019-04-01T02:13:33.367Z,63.41
2019-04-01T02:16:03.120Z,63.23
2019-04-01T02:18:32.830Z,63.45
2019-04-01T02:21:02.542Z,63.15
2019-04-01T02:23:32.237Z,63.50
2019-04-01T02:26:01.959Z,63.53
2019-04-01T02:28:31.405Z,63.43
2019-04-01T02:31:00.853Z,63.68
2019-04-01T02:33:30.294Z,63.55
2019-04-01T02:35:59.735Z,63.42
2019-04-01T02:38:29.598Z,63.75
2019-04-01T02:40:59.034Z,63.90
2019-04-01T02:43:28.797Z,63.67
2019-04-01T02:45:58.235Z,64.07
2019-04-01T02:48:27.683Z,64.14
2019-04-01T02:50:57.199Z,64.47
2019-04-01T02:53:26.924Z,64.25
2019-04-01T02:55:56.381Z,64.43
2019-04-01T02:58:25.821Z,64.54
2019-04-01T03:00:55.282Z,64.45
2019-04-01T03:03:24.720Z,64.43
2019-04-01T03:05:54.443Z,64.52
2019-04-01T03:08:23.885Z,64.78
2019-04-01T03:10:53.338Z,64.97
2019-04-01T03:13:23.067Z,65.12
2019-04-01T03:15:52.497Z,65.14
2019-04-01T03:18:22.168Z,65.26
2019-04-01T03:20:51.615Z,65.61
2019-04-01T03:23:21.095Z,65.89
2019-04-01T03:25:50.775Z,66.23
2019-04-01T03:28:20.452Z,66.42
2019-04-01T03:30:49.901Z,66.57
2019-04-01T03:33:19.334Z,66.75
2019-04-01T03:35:49.112Z,67.00
2019-04-01T03:38:18.539Z,67.19
2019-04-01T03:40:48.230Z,67.34
2019-04-01T03:43:17.923Z,67.69
2019-04-01T03:45:47.370Z,67.32
2019-04-01T03:48:17.139Z,67.37
2019-04-01T03:50:46.870Z,67.39
2019-04-01T03:53:16.302Z,67.37
2019-04-01T03:55:45.743Z,67.47
2019-04-01T03:58:15.186Z,67.58
2019-04-01T04:00:44.634Z,67.32
2019-04-01T04:03:14.067Z,67.61
2019-04-01T04:05:43.518Z,67.29
2019-04-01T04:08:13.189Z,67.32
2019-04-01T04:10:42.637Z,66.97
2019-04-01T04:13:12.087Z,67.42
2019-04-01T04:15:41.520Z,67.29
2019-04-01T04:18:10.947Z,67.25
2019-04-01T04:20:40.398Z,67.37
2019-04-01T04:23:09.842Z,67.44
2019-04-01T04:25:39.596Z,67.21
2019-04-01T04:28:09.107Z,67.24
2019-04-01T04:30:38.547Z,67.38
2019-04-01T04:33:08.316Z,67.59
2019-04-01T04:35:38.005Z,67.75
2019-04-01T04:38:07.731Z,67.70
2019-04-01T04:40:40.917Z,67.80
2019-04-01T04:43:08.913Z,67.87
2019-04-01T04:45:38.346Z,68.08
2019-04-01T04:48:07.797Z,68.24
2019-04-01T04:50:37.508Z,68.38
2019-04-01T04:53:07.371Z,68.01
2019-04-01T04:55:37.123Z,68.31
2019-04-01T04:58:06.565Z,68.63
2019-04-01T05:00:36.001Z,68.41
2019-04-01T05:03:05.844Z,68.46
2019-04-01T05:05:35.289Z,68.17
2019-04-01T05:08:04.728Z,68.64
2019-04-01T05:10:34.396Z,68.83
2019-04-01T05:13:03.844Z,68.42
2019-04-01T05:15:33.284Z,68.75
2019-04-01T05:18:02.732Z,68.59
2019-04-01T05:20:33.238Z,68.68
2019-04-01T05:23:03.866Z,68.81
2019-04-01T05:25:34.043Z,68.97
2019-04-01T05:28:04.164Z,68.87
2019-04-01T05:30:36.745Z,68.69
2019-04-01T05:33:06.187Z,68.94
2019-04-01T05:35:37.228Z,69.13
2019-04-01T05:38:07.331Z,68.90
2019-04-01T05:40:37.013Z,68.88
2019-04-01T05:43:06.819Z,69.20
2019-04-01T05:45:36.329Z,69.16
2019-04-01T05:48:05.840Z,69.28
2019-04-01T05:50:35.535Z,69.19
2019-04-01T05:53:05.449Z,68.94
2019-04-01T05:55:34.955Z,68.99
2019-04-01T05:58:04.472Z,69.21
2019-04-01T06:00:35.915Z,69.17
2019-04-01T06:03:05.825Z,68.83
2019-04-01T06:05:35.532Z,69.22
2019-04-01T06:08:05.045Z,69.25
2019-04-01T06:10:34.554Z,69.60
2019-04-01T06:13:04.256Z,69.13
2019-04-01T06:15:33.749Z,69.16
2019-04-01T06:18:03.564Z,69.22
2019-04-01T06:20:33.277Z,69.23
2019-04-01T06:23:03.088Z,68.99
2019-04-01T06:25:32.531Z,68.94
2019-04-01T06:28:02.299Z,69.51
2019-04-01T06:30:31.803Z,69.28
2019-04-01T06:33:01.624Z,69.18
2019-04-01T06:35:31.448Z,69.00
2019-04-01T06:38:04.499Z,68.86
2019-04-01T06:40:34.190Z,68.75
2019-04-01T06:43:03.640Z,68.84
2019-04-01T06:45:33.225Z,68.75
2019-04-01T06:48:02.669Z,68.53
2019-04-01T06:50:32.463Z,68.39
2019-04-01T06:53:01.965Z,68.45
2019-04-01T06:55:31.399Z,68.43
2019-04-01T06:58:01.164Z,68.31
2019-04-01T07:00:30.921Z,68.41
2019-04-01T07:03:00.681Z,67.94
2019-04-01T07:05:30.121Z,67.57
2019-04-01T07:07:59.714Z,67.31
2019-04-01T07:13:05.269Z,67.74
2019-04-01T07:15:35.094Z,67.71
2019-04-01T07:18:04.656Z,67.31
2019-04-01T07:20:34.373Z,67.09
2019-04-01T07:23:03.817Z,66.96
2019-04-01T07:25:34.291Z,66.85
2019-04-01T07:28:04.256Z,66.80
2019-04-01T07:30:33.766Z,66.34
2019-04-01T07:33:03.330Z,66.17
2019-04-01T07:35:33.053Z,66.07
2019-04-01T07:38:02.568Z,65.74
2019-04-01T07:40:32.007Z,65.70
2019-04-01T07:43:01.502Z,65.76
2019-04-01T07:45:30.906Z,65.65
2019-04-01T07:48:00.813Z,65.01
2019-04-01T07:50:30.291Z,65.03
2019-04-01T07:53:00.036Z,64.79
2019-04-01T07:55:29.765Z,64.84
2019-04-01T07:58:00.006Z,64.75
2019-04-01T08:00:29.857Z,64.09
2019-04-01T08:02:59.563Z,64.02
2019-04-01T08:05:29.473Z,63.71
2019-04-01T08:07:59.288Z,64.11
2019-04-01T08:10:28.743Z,63.82
2019-04-01T08:12:59.011Z,63.44
2019-04-01T08:15:29.137Z,63.32
2019-04-01T08:17:58.703Z,63.37
2019-04-01T08:20:28.156Z,63.45
2019-04-01T08:22:57.597Z,62.87
2019-04-01T08:25:27.059Z,62.83
2019-04-01T08:27:56.578Z,62.24
2019-04-01T08:30:26.032Z,62.33
2019-04-01T08:32:55.764Z,62.00
2019-04-01T08:35:25.583Z,61.69
2019-04-01T08:37:55.015Z,61.24
2019-04-01T08:40:24.470Z,61.00
2019-04-01T08:42:53.913Z,61.10
2019-04-01T08:45:23.370Z,61.04
2019-04-01T08:47:53.261Z,60.73
2019-04-01T08:50:23.653Z,60.37
2019-04-01T08:52:53.260Z,60.28
2019-04-01T08:55:22.964Z,60.26
2019-04-01T08:57:52.397Z,60.21
2019-04-01T09:00:22.353Z,59.82
2019-04-01T09:02:52.068Z,59.74
2019-04-01T09:05:21.521Z,59.28
2019-04-01T09:07:51.641Z,58.91
2019-04-01T09:10:21.094Z,58.81
2019-04-01T09:12:50.918Z,58.79
2019-04-01T09:15:20.369Z,58.36
2019-04-01T09:17:50.210Z,58.06
2019-04-01T09:20:20.035Z,57.97
2019-04-01T09:22:49.737Z,57.78
2019-04-01T09:25:19.191Z,57.52
2019-04-01T09:27:48.950Z,57.06
2019-04-01T09:30:19.582Z,56.83
2019-04-01T09:32:49.028Z,56.30
2019-04-01T09:35:18.793Z,56.16
2019-04-01T09:37:48.503Z,56.28
2019-04-01T09:40:18.933Z,56.12
2019-04-01T09:42:48.369Z,55.97
2019-04-01T09:45:17.821Z,55.70
2019-04-01T09:47:47.543Z,55.46
2019-04-01T09:50:17.362Z,55.03
2019-04-01T09:52:46.802Z,55.15
2019-04-01T09:55:16.675Z,55.00
2019-04-01T09:57:46.383Z,54.84
2019-04-01T10:00:16.649Z,54.40
2019-04-01T10:02:46.093Z,53.56
2019-04-01T10:05:16.287Z,53.59
2019-04-01T10:07:45.871Z,53.79
2019-04-01T10:10:15.627Z,53.10
2019-04-01T10:12:45.071Z,53.41
2019-04-01T10:15:14.857Z,53.76
2019-04-01T10:17:44.549Z,53.72
2019-04-01T10:20:14.436Z,53.47
2019-04-01T10:22:44.189Z,53.48
2019-04-01T10:25:13.641Z,53.23
2019-04-01T10:27:43.400Z,53.07
2019-04-01T10:30:14.112Z,53.21
2019-04-01T10:32:43.853Z,52.79
2019-04-01T10:35:14.075Z,52.61
2019-04-01T10:37:43.760Z,52.08
2019-04-01T10:40:13.832Z,52.00
2019-04-01T10:42:43.710Z,51.61
2019-04-01T10:45:13.823Z,51.73
2019-04-01T10:47:43.313Z,52.05
2019-04-01T10:50:13.431Z,51.91
2019-04-01T10:52:44.151Z,51.90
2019-04-01T10:55:14.162Z,51.45
2019-04-01T10:57:44.045Z,51.57
2019-04-01T11:00:14.130Z,51.27
2019-04-01T11:02:44.428Z,50.95
2019-04-01T11:05:14.099Z,50.51
2019-04-01T11:07:44.007Z,50.52
2019-04-01T11:10:13.921Z,50.57
2019-04-01T11:12:43.694Z,50.76
2019-04-01T11:15:15.760Z,50.29
2019-04-01T11:17:45.321Z,49.88
2019-04-01T11:20:14.822Z,49.59
2019-04-01T11:22:44.275Z,49.65
2019-04-01T11:25:14.906Z,50.00
2019-04-01T11:27:44.615Z,50.03
2019-04-01T11:30:16.903Z,49.64
2019-04-01T11:32:46.751Z,49.50
2019-04-01T11:35:17.774Z,49.11
2019-04-01T11:37:47.567Z,48.52
2019-04-01T11:40:17.100Z,48.25
2019-04-01T11:42:46.931Z,48.49
2019-04-01T11:45:16.459Z,48.34
2019-04-01T11:47:45.944Z,48.15
2019-04-01T11:50:15.492Z,48.43
2019-04-01T11:52:45.313Z,47.82
2019-04-01T11:55:15.101Z,46.87
2019-04-01T11:57:44.551Z,46.86
2019-04-01T12:00:17.997Z,47.23
2019-04-01T12:02:47.758Z,47.35
2019-04-01T12:05:17.513Z,46.73
2019-04-01T12:07:47.229Z,46.78
2019-04-01T12:10:16.679Z,46.47
2019-04-01T12:12:46.200Z,46.18
2019-04-01T12:15:15.787Z,45.74
2019-04-01T12:17:45.552Z,45.82
2019-04-01T12:20:15.258Z,45.32
2019-04-01T12:22:46.048Z,45.61
2019-04-01T12:25:15.905Z,45.47
2019-04-01T12:27:45.654Z,45.66
2019-04-01T12:30:15.236Z,45.53
2019-04-01T12:32:44.682Z,43.95
2019-04-01T12:35:14.443Z,44.28
2019-04-01T12:37:45.831Z,44.14
2019-04-01T12:40:15.350Z,43.77
2019-04-01T12:42:46.408Z,43.17
2019-04-01T12:45:16.277Z,43.63
2019-04-01T12:47:45.730Z,43.52
2019-04-01T12:50:15.519Z,42.86
2019-04-01T12:52:44.972Z,42.93
2019-04-01T12:55:16.084Z,43.22
2019-04-01T12:57:48.375Z,43.37
2019-04-01T13:00:17.216Z,42.56
2019-04-01T13:02:47.277Z,42.14
2019-04-01T13:05:16.989Z,42.37
2019-04-01T13:07:46.441Z,42.14
2019-04-01T13:10:16.300Z,41.95
2019-04-01T13:12:46.484Z,42.17
2019-04-01T13:15:16.548Z,42.18
2019-04-01T13:17:46.251Z,41.88
2019-04-01T13:20:15.959Z,41.74
2019-04-01T13:22:45.407Z,42.27
2019-04-01T13:25:15.165Z,41.70
2019-04-01T13:27:44.626Z,41.59
2019-04-01T13:30:14.798Z,42.01
2019-04-01T13:32:44.492Z,42.16
2019-04-01T13:35:14.272Z,42.20
2019-04-01T13:37:43.783Z,42.34
2019-04-01T13:40:15.366Z,42.12
2019-04-01T13:42:44.999Z,42.22
2019-04-01T13:45:15.023Z,41.89
2019-04-01T13:47:44.464Z,41.64
2019-04-01T13:50:16.520Z,41.58
2019-04-01T13:52:46.173Z,41.71
2019-04-01T13:55:15.620Z,41.37
2019-04-01T13:57:45.381Z,41.11
2019-04-01T14:00:15.830Z,40.31
2019-04-01T14:02:45.625Z,40.44
2019-04-01T14:05:15.250Z,39.67
2019-04-01T14:07:45.034Z,39.89
2019-04-01T14:10:14.895Z,39.16
2019-04-01T14:12:44.661Z,38.59
2019-04-01T14:15:14.809Z,37.54
2019-04-01T14:17:44.497Z,37.36
2019-04-01T14:20:14.419Z,37.51
2019-04-01T14:22:44.535Z,37.56
2019-04-01T14:25:14.549Z,37.33
2019-04-01T14:27:44.554Z,37.48
2019-04-01T14:30:14.567Z,37.94
2019-04-01T14:32:44.287Z,37.96
2019-04-01T14:35:14.211Z,38.01
2019-04-01T14:37:43.929Z,37.26
2019-04-01T14:40:14.345Z,36.47
2019-04-01T14:42:46.349Z,36.08
2019-04-01T14:45:15.399Z,36.14
2019-04-01T14:47:56.525Z,37.03
2019-04-01T14:50:16.348Z,37.49
2019-04-01T14:52:46.147Z,37.70
2019-04-01T14:55:16.600Z,37.48
2019-04-01T14:57:48.070Z,37.65
2019-04-01T15:00:20.018Z,37.85
2019-04-01T15:02:49.457Z,37.47
2019-04-01T15:05:19.952Z,36.93
2019-04-01T15:07:50.089Z,37.63
2019-04-01T15:10:20.177Z,36.94
2019-04-01T15:13:04.048Z,36.78
2019-04-01T15:15:21.314Z,37.68
2019-04-01T15:17:50.764Z,38.40
2019-04-01T15:20:21.242Z,37.99
2019-04-01T15:22:50.691Z,38.04
2019-04-01T15:25:20.457Z,37.94
2019-04-01T15:27:50.163Z,38.43
2019-04-01T15:30:19.616Z,38.55
2019-04-01T15:32:49.087Z,38.73
2019-04-01T15:35:18.544Z,38.85
2019-04-01T15:37:48.007Z,38.94
2019-04-01T15:40:18.255Z,39.06
2019-04-01T15:42:48.220Z,38.74
2019-04-01T15:45:17.669Z,38.88
2019-04-01T15:47:47.114Z,38.96
2019-04-01T15:50:27.799Z,39.22
2019-04-01T15:52:48.176Z,39.49
2019-04-01T15:55:17.724Z,39.52
2019-04-01T15:57:47.147Z,39.39
2019-04-01T16:00:19.489Z,39.19
2019-04-01T16:02:48.302Z,37.60
2019-04-01T16:05:17.754Z,35.01
2019-04-01T16:07:47.260Z,36.18
2019-04-01T16:10:17.059Z,37.47
2019-04-01T16:12:46.766Z,38.08
2019-04-01T16:15:16.396Z,38.72
2019-04-01T16:17:45.833Z,38.73
2019-04-01T16:20:15.363Z,38.92
2019-04-01T16:22:45.929Z,38.54
2019-04-01T16:25:15.334Z,37.96
2019-04-01T16:27:45.034Z,35.90
2019-04-01T16:30:14.554Z,34.66
2019-04-01T16:32:44.338Z,35.56
2019-04-01T16:35:13.930Z,35.87
2019-04-01T16:37:43.378Z,36.86
2019-04-01T16:40:13.385Z,37.79
2019-04-01T16:42:42.834Z,38.40
2019-04-01T16:45:13.551Z,38.55
2019-04-01T16:47:43.681Z,38.88
2019-04-01T16:50:13.654Z,39.43
2019-04-01T16:52:43.441Z,39.43
2019-04-01T16:55:18.022Z,39.68
2019-04-01T16:57:46.859Z,40.17
2019-04-01T17:00:18.477Z,40.61
2019-04-01T17:02:49.214Z,40.68
2019-04-01T17:05:24.165Z,40.84
2019-04-01T17:07:53.600Z,40.98
2019-04-01T17:10:24.906Z,41.11
2019-04-01T17:12:54.739Z,40.98
2019-04-01T17:15:24.654Z,41.00
2019-04-01T17:17:54.343Z,41.30
2019-04-01T17:20:24.067Z,41.49
2019-04-01T17:22:53.765Z,41.76
2019-04-01T17:25:23.284Z,42.02
2019-04-01T17:27:52.988Z,42.21
2019-04-01T17:30:22.574Z,42.38
2019-04-01T17:32:52.024Z,42.61
2019-04-01T17:35:21.814Z,42.91
2019-04-01T17:37:51.258Z,43.20
2019-04-01T17:40:20.775Z,43.64
2019-04-01T17:42:50.540Z,43.77
2019-04-01T17:45:36.129Z,44.00
2019-04-01T17:48:06.596Z,44.11
2019-04-01T17:50:36.446Z,44.61
2019-04-01T17:53:09.453Z,44.86
2019-04-01T17:55:39.251Z,45.08
2019-04-01T17:58:08.773Z,45.24
2019-04-01T18:00:42.465Z,45.77
2019-04-01T18:03:11.989Z,45.86
2019-04-01T18:05:41.825Z,46.06
2019-04-01T18:08:11.542Z,46.22
2019-04-01T18:10:41.292Z,46.48
2019-04-01T18:13:10.995Z,46.72
2019-04-01T18:15:40.513Z,46.86
2019-04-01T18:18:10.624Z,47.16
2019-04-01T18:20:40.217Z,47.48
2019-04-01T18:23:10.216Z,47.77
2019-04-01T18:25:39.694Z,48.21
2019-04-01T18:28:09.471Z,48.73
2019-04-01T18:30:38.914Z,48.85
2019-04-01T18:33:08.372Z,48.87
2019-04-01T18:35:38.058Z,49.28
2019-04-01T18:38:07.804Z,49.44
2019-04-01T18:40:37.491Z,49.65
2019-04-01T18:43:06.943Z,49.92
2019-04-01T18:45:36.448Z,50.26
2019-04-01T18:48:05.970Z,50.41
2019-04-01T18:50:35.410Z,50.62
2019-04-01T18:53:05.227Z,50.90
2019-04-01T18:55:35.171Z,51.08
2019-04-01T18:58:04.618Z,51.62
2019-04-01T19:00:34.065Z,51.95
2019-04-01T19:03:03.871Z,51.93
2019-04-01T19:05:33.535Z,52.52
2019-04-01T19:08:04.164Z,52.81
2019-04-01T19:10:34.416Z,53.29
2019-04-01T19:13:07.549Z,53.63
2019-04-01T19:15:37.856Z,53.94
2019-04-01T19:18:08.081Z,53.79
2019-04-01T19:20:37.545Z,54.23
2019-04-01T19:23:07.047Z,54.32
2019-04-01T19:25:36.819Z,54.65
2019-04-01T19:28:06.577Z,54.57
2019-04-01T19:30:36.275Z,54.79
2019-04-01T19:33:06.831Z,55.01
2019-04-01T19:35:37.358Z,55.30
2019-04-01T19:38:07.538Z,55.69
2019-04-01T19:40:37.578Z,55.95
2019-04-01T19:43:07.463Z,55.97
2019-04-01T19:45:37.835Z,56.32
2019-04-01T19:48:07.918Z,56.40
2019-04-01T19:50:37.716Z,56.64
2019-04-01T19:53:07.387Z,56.78
2019-04-01T19:55:37.801Z,56.96
2019-04-01T19:58:07.484Z,57.30
2019-04-01T20:00:37.087Z,57.36
2019-04-01T20:03:06.538Z,57.66
2019-04-01T20:05:36.044Z,57.25
2019-04-01T20:08:05.488Z,58.04
2019-04-01T20:10:35.326Z,58.33
2019-04-01T20:13:05.134Z,59.11
2019-04-01T20:15:34.869Z,59.30
2019-04-01T20:18:04.528Z,59.54
2019-04-01T20:20:34.208Z,59.57
2019-04-01T20:23:04.453Z,59.35
2019-04-01T20:25:34.300Z,59.44
2019-04-01T20:28:05.040Z,59.81
2019-04-01T20:30:34.452Z,59.54
2019-04-01T20:33:16.586Z,59.79
2019-04-01T20:35:37.788Z,59.93
2019-04-01T20:38:08.352Z,60.36
2019-04-01T20:40:41.805Z,60.60
2019-04-01T20:43:15.774Z,60.91
2019-04-01T20:45:48.298Z,60.86
2019-04-01T20:48:17.745Z,60.70
2019-04-01T20:50:49.085Z,60.51
2019-04-01T20:53:19.442Z,60.31
2019-04-01T20:55:50.660Z,60.93
2019-04-01T20:58:21.415Z,61.25
2019-04-01T21:00:51.468Z,60.83
2019-04-01T21:03:21.602Z,61.56
2019-04-01T21:05:53.140Z,61.99
2019-04-01T21:08:23.312Z,61.93
2019-04-01T21:10:54.278Z,61.81
2019-04-01T21:13:25.428Z,61.91
2019-04-01T21:15:55.431Z,62.00
2019-04-01T21:18:25.935Z,62.27
2019-04-01T21:20:56.015Z,62.66
2019-04-01T21:23:25.747Z,62.70
2019-04-01T21:25:55.201Z,63.06
2019-04-01T21:28:25.459Z,63.15
2019-04-01T21:30:55.282Z,63.04
2019-04-01T21:33:24.736Z,63.16
2019-04-01T21:35:54.430Z,63.44
2019-04-01T21:38:23.890Z,63.49
2019-04-01T21:40:53.406Z,63.37
2019-04-01T21:43:23.858Z,63.58
2019-04-01T21:45:53.654Z,64.11
2019-04-01T21:48:23.364Z,66.40
2019-04-01T21:50:52.790Z,66.97
2019-04-01T21:53:22.242Z,67.41
2019-04-01T21:55:51.978Z,66.79
2019-04-01T21:58:21.435Z,65.61
2019-04-01T22:00:53.786Z,65.25
2019-04-01T22:03:23.760Z,65.42
2019-04-01T22:05:53.585Z,65.17
2019-04-01T22:08:23.293Z,64.77
2019-04-01T22:10:53.089Z,64.19
2019-04-01T22:13:22.807Z,64.53
2019-04-01T22:15:52.518Z,64.52
2019-04-01T22:18:21.959Z,64.95
2019-04-01T22:20:51.425Z,65.31
2019-04-01T22:23:21.123Z,65.56
2019-04-01T22:25:50.573Z,65.44
2019-04-01T22:28:21.220Z,65.18
2019-04-01T22:30:51.907Z,64.75
2019-04-01T22:33:21.900Z,64.98
2019-04-01T22:35:51.349Z,64.88
2019-04-01T22:38:25.391Z,65.15
2019-04-01T22:40:51.973Z,65.26
2019-04-01T22:43:21.412Z,65.81
2019-04-01T22:45:51.172Z,66.05
2019-04-01T22:48:20.874Z,65.72
2019-04-01T22:50:50.317Z,65.78
2019-04-01T22:53:20.084Z,65.73
2019-04-01T22:55:49.548Z,65.96
2019-04-01T22:58:19.234Z,65.81
2019-04-01T23:00:49.007Z,65.34
2019-04-01T23:03:18.721Z,66.08
2019-04-01T23:05:48.426Z,66.52
2019-04-01T23:08:17.871Z,67.05
2019-04-01T23:10:47.636Z,67.14
2019-04-01T23:13:17.344Z,67.09
2019-04-01T23:15:47.058Z,67.61
2019-04-01T23:18:16.496Z,68.03
2019-04-01T23:20:46.271Z,68.01
2019-04-01T23:23:15.704Z,68.23
2019-04-01T23:25:45.224Z,68.15
2019-04-01T23:28:14.663Z,67.85
2019-04-01T23:30:44.104Z,68.47
2019-04-01T23:33:13.898Z,68.03
2019-04-01T23:35:43.702Z,68.08
2019-04-01T23:38:13.224Z,67.97
2019-04-01T23:40:42.671Z,68.03
2019-04-01T23:43:12.422Z,68.27
2019-04-01T23:45:41.869Z,68.38
2019-04-01T23:48:11.307Z,68.14
2019-04-01T23:50:40.757Z,67.91
2019-04-01T23:53:10.437Z,67.79
2019-04-01T23:55:39.885Z,67.84
2019-04-01T23:58:09.495Z,67.59
